^^
Station Historical Data
 
Daily Summary for April 24, 2018 Units:  English    Metric   Both
« Previous Day
Next Day »
Daily Weekly Monthly Yearly Custom
  Current: High: Low: Average:
Temperature: 67.5 °F TemperatureF °F 65.8 °F 68.1 °F
Dew Point: 65.3 °F DewpointF °F 64.6 °F 66.4 °F
Humidity: 93% Humidity% 92% 93%
Wind Speed: 0.0mph WindSpeedMPHmph 0.0mph 0mph
Wind Gust: 0.0mph WindSpeedGustMPHmph - -
WindCalm - - West
Pressure: 29.93 in PressureIn in 29.92 in -
Precipitation: 0.00 in      
Historical Graphs
 
 
Tabular Data for April 24, 2018
Time Temperature Dew Point Pressure Wind Wind Speed Wind Gust Humidity Rainfall Rate (Hourly) solar
TemperatureF °F DewpointF °F PressureIn in Calm     Humidity% HourlyPrecipIn in SolarRadiationWatts/m^2 W/m2
00:03 72.7 °F 70.2 °F 29.95 in Calm     92% 0.00 in 0.0 W/m2
00:08 72.7 °F 70.2 °F 29.95 in Calm     92% 0.00 in 0.0 W/m2
00:14 72.5 °F 70.0 °F 29.95 in Calm     92% 0.00 in 0.0 W/m2
00:19 72.5 °F 70.0 °F 29.95 in Calm     92% 0.00 in 0.0 W/m2
00:25 72.5 °F 70.0 °F 29.94 in Calm     92% 0.00 in 0.0 W/m2
00:30 72.3 °F 69.8 °F 29.95 in Calm     92% 0.00 in 0.0 W/m2
00:35 72.1 °F 69.6 °F 29.95 in Calm     92% 0.00 in 0.0 W/m2
00:40 72.0 °F 69.4 °F 29.95 in Calm     92% 0.00 in 0.0 W/m2
00:46 72.0 °F 69.4 °F 29.95 in Calm     92% 0.00 in 0.0 W/m2
00:51 71.6 °F 69.4 °F 29.95 in Calm     93% 0.00 in 0.0 W/m2
00:57 71.6 °F 69.8 °F 29.95 in Calm     94% 0.00 in 0.0 W/m2
01:02 71.4 °F 69.3 °F 29.95 in Calm     93% 0.00 in 0.0 W/m2
01:08 71.1 °F 68.9 °F 29.94 in Calm     93% 0.00 in 0.0 W/m2
01:13 70.9 °F 68.7 °F 29.95 in Calm     93% 0.00 in 0.0 W/m2
01:18 70.5 °F 68.7 °F 29.94 in Calm     94% 0.00 in 0.0 W/m2
01:23 70.2 °F 68.4 °F 29.94 in Calm     94% 0.00 in 0.0 W/m2
01:29 69.8 °F 67.6 °F 29.95 in Calm     93% 0.00 in 0.0 W/m2
01:34 69.6 °F 67.5 °F 29.95 in Calm     93% 0.00 in 0.0 W/m2
01:40 69.6 °F 67.8 °F 29.94 in Calm     94% 0.00 in 0.0 W/m2
01:45 69.6 °F 67.8 °F 29.93 in Calm     94% 0.00 in 0.0 W/m2
01:51 69.8 °F 68.0 °F 29.94 in Calm   2.5 mph 94% 0.00 in 0.0 W/m2
01:56 70.0 °F 68.2 °F 29.94 in Calm     94% 0.00 in 0.0 W/m2
02:01 70.2 °F 68.4 °F 29.93 in Calm     94% 0.00 in 0.0 W/m2
02:06 70.2 °F 68.4 °F 29.94 in Calm     94% 0.00 in 0.0 W/m2
02:12 70.0 °F 68.5 °F 29.93 in Calm     95% 0.00 in 0.0 W/m2
02:17 70.0 °F 68.5 °F 29.93 in Calm     95% 0.00 in 0.0 W/m2
02:23 69.8 °F 68.4 °F 29.93 in Calm     95% 0.00 in 0.0 W/m2
02:28 69.6 °F 68.2 °F 29.93 in Calm     95% 0.00 in 0.0 W/m2
02:34 69.4 °F 68.0 °F 29.94 in Calm     95% 0.00 in 0.0 W/m2
02:39 69.4 °F 68.0 °F 29.93 in Calm     95% 0.00 in 0.0 W/m2
02:45 69.3 °F 67.8 °F 29.93 in Calm     95% 0.00 in 0.0 W/m2
02:50 69.3 °F 67.8 °F 29.93 in Calm     95% 0.00 in 0.0 W/m2
02:55 69.1 °F 67.6 °F 29.93 in Calm     95% 0.00 in 0.0 W/m2
03:01 69.1 °F 67.6 °F 29.93 in Calm     95% 0.00 in 0.0 W/m2
03:06 69.1 °F 67.6 °F 29.93 in Calm     95% 0.00 in 0.0 W/m2
03:11 69.1 °F 67.6 °F 29.93 in Calm     95% 0.00 in 0.0 W/m2
03:17 68.9 °F 67.5 °F 29.93 in Calm     95% 0.00 in 0.0 W/m2
03:22 68.9 °F 67.5 °F 29.93 in Calm     95% 0.00 in 0.0 W/m2
03:27 68.9 °F 67.5 °F 29.93 in Calm     95% 0.00 in 0.0 W/m2
03:32 68.9 °F 67.5 °F 29.93 in Calm     95% 0.00 in 0.0 W/m2
03:38 68.7 °F 67.3 °F 29.92 in Calm     95% 0.00 in 0.0 W/m2
03:43 68.7 °F 67.3 °F 29.93 in Calm     95% 0.00 in 0.0 W/m2
03:48 68.5 °F 66.7 °F 29.93 in Calm     94% 0.00 in 0.0 W/m2
03:54 68.5 °F 66.7 °F 29.92 in Calm     94% 0.00 in 0.0 W/m2
03:59 68.4 °F 66.6 °F 29.93 in Calm     94% 0.00 in 0.0 W/m2
04:04 68.2 °F 66.4 °F 29.93 in Calm     94% 0.00 in 0.0 W/m2
04:10 68.0 °F 66.6 °F 29.92 in Calm     95% 0.00 in 0.0 W/m2
04:15 67.8 °F 66.4 °F 29.92 in Calm     95% 0.00 in 0.0 W/m2
04:21 67.6 °F 66.2 °F 29.92 in Calm     95% 0.00 in 0.0 W/m2
04:26 67.5 °F 66.0 °F 29.92 in Calm     95% 0.00 in 0.0 W/m2
04:31 67.3 °F 65.8 °F 29.93 in Calm     95% 0.00 in 0.0 W/m2
04:37 66.9 °F 65.5 °F 29.92 in Calm     95% 0.00 in 0.0 W/m2
04:42 66.7 °F 65.5 °F 29.92 in Calm     96% 0.00 in 0.0 W/m2
04:47 66.4 °F 65.1 °F 29.92 in Calm     96% 0.00 in 0.0 W/m2
04:52 66.2 °F 64.9 °F 29.92 in Calm     96% 0.00 in 0.0 W/m2
04:57 66.0 °F 64.8 °F 29.92 in Calm     96% 0.00 in 0.0 W/m2
05:02 65.8 °F 64.6 °F 29.93 in Calm     96% 0.00 in 0.0 W/m2
05:08 65.8 °F 64.6 °F 29.93 in Calm     96% 0.00 in 0.0 W/m2
05:13 65.8 °F 64.6 °F 29.92 in Calm     96% 0.00 in 0.0 W/m2
05:18 66.0 °F 64.8 °F 29.93 in Calm   2.5 mph 96% 0.00 in 0.0 W/m2
05:23 66.4 °F 65.1 °F 29.93 in Calm     96% 0.00 in 0.0 W/m2
05:28 66.7 °F 65.5 °F 29.93 in Calm   2.5 mph 96% 0.00 in 0.0 W/m2
05:33 67.1 °F 65.7 °F 29.93 in Calm     95% 0.00 in 0.0 W/m2
05:39 67.3 °F 65.5 °F 29.93 in West 0.7 mph 2.5 mph 94% 0.00 in 0.0 W/m2
05:44 67.5 °F 66.0 °F 29.93 in Calm     95% 0.00 in 0.0 W/m2
05:49 67.6 °F 65.8 °F 29.93 in Calm     94% 0.00 in 0.0 W/m2
05:54 67.6 °F 65.5 °F 29.93 in Calm     93% 0.00 in 0.0 W/m2
06:00 67.6 °F 65.5 °F 29.93 in Calm     93% 0.00 in 0.0 W/m2
06:05 67.5 °F 65.3 °F 29.93 in Calm     93% 0.00 in 0.0 W/m2
Spring Hill, FL, USA
Compliments of Weather Underground - 2.25 mb